sensor_id;sensor_type;location;lat;lon;timestamp;temperature;humidity
27797;DHT22;15177;50.844;4.412;2022-10-16T00:01:08;15.30;99.90
27797;DHT22;15177;50.844;4.412;2022-10-16T00:03:34;15.30;99.90
27797;DHT22;15177;50.844;4.412;2022-10-16T00:06:01;15.30;99.90
27797;DHT22;15177;50.844;4.412;2022-10-16T00:08:27;15.40;99.90
27797;DHT22;15177;50.844;4.412;2022-10-16T00:10:59;15.30;99.90
27797;DHT22;15177;50.844;4.412;2022-10-16T00:13:24;15.40;99.90
27797;DHT22;15177;50.844;4.412;2022-10-16T00:15:50;15.30;99.90
27797;DHT22;15177;50.844;4.412;2022-10-16T00:18:15;15.30;99.90
27797;DHT22;15177;50.844;4.412;2022-10-16T00:20:41;15.30;99.90
27797;DHT22;15177;50.844;4.412;2022-10-16T00:23:07;15.30;99.90
27797;DHT22;15177;50.844;4.412;2022-10-16T00:25:33;15.30;99.90
27797;DHT22;15177;50.844;4.412;2022-10-16T00:28:00;15.30;99.90
27797;DHT22;15177;50.844;4.412;2022-10-16T00:30:26;15.30;99.90
27797;DHT22;15177;50.844;4.412;2022-10-16T00:32:53;15.30;99.90
27797;DHT22;15177;50.844;4.412;2022-10-16T00:35:19;15.30;99.90
27797;DHT22;15177;50.844;4.412;2022-10-16T00:37:44;15.30;99.90
27797;DHT22;15177;50.844;4.412;2022-10-16T00:40:10;15.40;99.90
27797;DHT22;15177;50.844;4.412;2022-10-16T00:42:36;15.30;99.90
27797;DHT22;15177;50.844;4.412;2022-10-16T00:45:02;15.20;99.90
27797;DHT22;15177;50.844;4.412;2022-10-16T00:47:37;15.20;99.90
27797;DHT22;15177;50.844;4.412;2022-10-16T00:52:49;15.20;99.90
27797;DHT22;15177;50.844;4.412;2022-10-16T00:55:16;15.20;99.90
27797;DHT22;15177;50.844;4.412;2022-10-16T00:57:43;15.20;99.90
27797;DHT22;15177;50.844;4.412;2022-10-16T01:00:14;15.20;99.90
27797;DHT22;15177;50.844;4.412;2022-10-16T01:02:41;15.20;99.90
27797;DHT22;15177;50.844;4.412;2022-10-16T01:05:07;15.10;99.90
27797;DHT22;15177;50.844;4.412;2022-10-16T01:07:51;15.00;99.90
27797;DHT22;15177;50.844;4.412;2022-10-16T01:10:33;15.10;99.90
27797;DHT22;15177;50.844;4.412;2022-10-16T01:13:09;15.00;99.90
27797;DHT22;15177;50.844;4.412;2022-10-16T01:18:28;15.00;99.90
27797;DHT22;15177;50.844;4.412;2022-10-16T01:21:01;14.90;99.90
27797;DHT22;15177;50.844;4.412;2022-10-16T01:29:00;15.00;99.90
27797;DHT22;15177;50.844;4.412;2022-10-16T01:31:32;14.90;99.90
27797;DHT22;15177;50.844;4.412;2022-10-16T01:34:06;14.80;99.90
27797;DHT22;15177;50.844;4.412;2022-10-16T01:37:00;14.90;99.90
27797;DHT22;15177;50.844;4.412;2022-10-16T01:39:31;15.00;99.90
27797;DHT22;15177;50.844;4.412;2022-10-16T01:42:16;14.80;99.90
27797;DHT22;15177;50.844;4.412;2022-10-16T01:44:45;14.90;99.90
27797;DHT22;15177;50.844;4.412;2022-10-16T01:47:13;15.00;99.90
27797;DHT22;15177;50.844;4.412;2022-10-16T01:49:40;15.00;99.90
27797;DHT22;15177;50.844;4.412;2022-10-16T01:52:14;14.90;99.90
27797;DHT22;15177;50.844;4.412;2022-10-16T01:54:43;14.90;99.90
27797;DHT22;15177;50.844;4.412;2022-10-16T01:57:11;14.90;99.90
27797;DHT22;15177;50.844;4.412;2022-10-16T01:59:43;14.80;99.90
27797;DHT22;15177;50.844;4.412;2022-10-16T02:02:10;14.70;99.90
27797;DHT22;15177;50.844;4.412;2022-10-16T02:04:44;14.80;99.90
27797;DHT22;15177;50.844;4.412;2022-10-16T02:07:10;15.00;99.90
27797;DHT22;15177;50.844;4.412;2022-10-16T02:09:36;14.90;99.90
27797;DHT22;15177;50.844;4.412;2022-10-16T02:12:42;15.00;99.90
27797;DHT22;15177;50.844;4.412;2022-10-16T02:15:00;14.90;99.90
27797;DHT22;15177;50.844;4.412;2022-10-16T02:17:27;15.00;99.90
27797;DHT22;15177;50.844;4.412;2022-10-16T02:19:55;15.00;99.90
27797;DHT22;15177;50.844;4.412;2022-10-16T02:22:28;14.90;99.90
27797;DHT22;15177;50.844;4.412;2022-10-16T02:25:05;14.90;99.90
27797;DHT22;15177;50.844;4.412;2022-10-16T02:27:59;14.80;99.90
27797;DHT22;15177;50.844;4.412;2022-10-16T02:30:42;14.80;99.90
27797;DHT22;15177;50.844;4.412;2022-10-16T02:33:11;14.90;99.90
27797;DHT22;15177;50.844;4.412;2022-10-16T02:35:40;14.90;99.90
27797;DHT22;15177;50.844;4.412;2022-10-16T02:38:07;14.80;99.90
27797;DHT22;15177;50.844;4.412;2022-10-16T02:40:34;14.80;99.90
27797;DHT22;15177;50.844;4.412;2022-10-16T02:43:03;14.90;99.90
27797;DHT22;15177;50.844;4.412;2022-10-16T02:45:29;14.90;99.90
27797;DHT22;15177;50.844;4.412;2022-10-16T02:47:55;15.00;99.90
27797;DHT22;15177;50.844;4.412;2022-10-16T02:50:21;14.90;99.90
27797;DHT22;15177;50.844;4.412;2022-10-16T02:52:47;14.80;99.90
27797;DHT22;15177;50.844;4.412;2022-10-16T02:55:13;14.80;99.90
27797;DHT22;15177;50.844;4.412;2022-10-16T02:57:38;14.80;99.90
27797;DHT22;15177;50.844;4.412;2022-10-16T03:00:09;14.80;99.90
27797;DHT22;15177;50.844;4.412;2022-10-16T03:02:35;14.70;99.90
27797;DHT22;15177;50.844;4.412;2022-10-16T03:05:01;14.80;99.90
27797;DHT22;15177;50.844;4.412;2022-10-16T03:07:26;14.80;99.90
27797;DHT22;15177;50.844;4.412;2022-10-16T03:09:52;14.90;99.90
27797;DHT22;15177;50.844;4.412;2022-10-16T03:12:18;14.90;99.90
27797;DHT22;15177;50.844;4.412;2022-10-16T03:14:44;14.90;99.90
27797;DHT22;15177;50.844;4.412;2022-10-16T03:17:09;15.00;99.90
27797;DHT22;15177;50.844;4.412;2022-10-16T03:19:35;14.90;99.90
27797;DHT22;15177;50.844;4.412;2022-10-16T03:22:01;14.90;99.90
27797;DHT22;15177;50.844;4.412;2022-10-16T03:24:27;14.90;99.90
27797;DHT22;15177;50.844;4.412;2022-10-16T03:26:52;14.90;99.90
27797;DHT22;15177;50.844;4.412;2022-10-16T03:29:19;14.90;99.90
27797;DHT22;15177;50.844;4.412;2022-10-16T03:31:45;14.80;99.90
27797;DHT22;15177;50.844;4.412;2022-10-16T03:34:11;14.90;99.90
27797;DHT22;15177;50.844;4.412;2022-10-16T03:36:36;14.80;99.90
27797;DHT22;15177;50.844;4.412;2022-10-16T03:39:02;14.80;99.90
27797;DHT22;15177;50.844;4.412;2022-10-16T03:41:28;14.80;99.90
27797;DHT22;15177;50.844;4.412;2022-10-16T03:43:53;14.80;99.90
27797;DHT22;15177;50.844;4.412;2022-10-16T03:46:19;14.60;99.90
27797;DHT22;15177;50.844;4.412;2022-10-16T03:48:45;14.60;99.90
27797;DHT22;15177;50.844;4.412;2022-10-16T03:51:10;14.70;99.90
27797;DHT22;15177;50.844;4.412;2022-10-16T03:53:36;14.70;99.90
27797;DHT22;15177;50.844;4.412;2022-10-16T03:56:02;14.80;99.90
27797;DHT22;15177;50.844;4.412;2022-10-16T03:58:27;14.80;99.90
27797;DHT22;15177;50.844;4.412;2022-10-16T04:00:53;14.80;99.90
27797;DHT22;15177;50.844;4.412;2022-10-16T04:03:18;14.80;99.90
27797;DHT22;15177;50.844;4.412;2022-10-16T04:05:44;14.80;99.90
27797;DHT22;15177;50.844;4.412;2022-10-16T04:08:10;14.80;99.90
27797;DHT22;15177;50.844;4.412;2022-10-16T04:10:36;14.70;99.90
27797;DHT22;15177;50.844;4.412;2022-10-16T04:13:02;14.70;99.90
27797;DHT22;15177;50.844;4.412;2022-10-16T04:15:28;14.70;99.90
27797;DHT22;15177;50.844;4.412;2022-10-16T04:17:54;14.80;99.90
27797;DHT22;15177;50.844;4.412;2022-10-16T04:20:19;14.90;99.90
27797;DHT22;15177;50.844;4.412;2022-10-16T04:22:45;14.80;99.90
27797;DHT22;15177;50.844;4.412;2022-10-16T04:25:11;14.80;99.90
27797;DHT22;15177;50.844;4.412;2022-10-16T04:27:37;14.80;99.90
27797;DHT22;15177;50.844;4.412;2022-10-16T04:30:03;14.80;99.90
27797;DHT22;15177;50.844;4.412;2022-10-16T04:32:29;14.80;99.90
27797;DHT22;15177;50.844;4.412;2022-10-16T04:34:54;14.80;99.90
27797;DHT22;15177;50.844;4.412;2022-10-16T04:37:26;14.80;99.90
27797;DHT22;15177;50.844;4.412;2022-10-16T04:39:53;14.80;99.90
27797;DHT22;15177;50.844;4.412;2022-10-16T04:42:20;14.80;99.90
27797;DHT22;15177;50.844;4.412;2022-10-16T04:44:45;14.80;99.90
27797;DHT22;15177;50.844;4.412;2022-10-16T04:47:12;14.70;99.90
27797;DHT22;15177;50.844;4.412;2022-10-16T04:49:37;14.70;99.90
27797;DHT22;15177;50.844;4.412;2022-10-16T04:52:03;14.70;99.90
27797;DHT22;15177;50.844;4.412;2022-10-16T04:54:29;14.80;99.90
27797;DHT22;15177;50.844;4.412;2022-10-16T04:56:54;14.70;99.90
27797;DHT22;15177;50.844;4.412;2022-10-16T04:59:20;14.60;99.90
27797;DHT22;15177;50.844;4.412;2022-10-16T05:01:46;14.70;99.90
27797;DHT22;15177;50.844;4.412;2022-10-16T05:04:12;14.60;99.90
27797;DHT22;15177;50.844;4.412;2022-10-16T05:06:38;14.60;99.90
27797;DHT22;15177;50.844;4.412;2022-10-16T05:09:04;14.50;99.90
27797;DHT22;15177;50.844;4.412;2022-10-16T05:11:31;14.50;99.90
27797;DHT22;15177;50.844;4.412;2022-10-16T05:13:56;14.60;99.90
27797;DHT22;15177;50.844;4.412;2022-10-16T05:16:22;14.60;99.90
27797;DHT22;15177;50.844;4.412;2022-10-16T05:18:48;14.70;99.90
27797;DHT22;15177;50.844;4.412;2022-10-16T05:21:14;14.70;99.90
27797;DHT22;15177;50.844;4.412;2022-10-16T05:23:39;14.60;99.90
27797;DHT22;15177;50.844;4.412;2022-10-16T05:26:05;14.60;99.90
27797;DHT22;15177;50.844;4.412;2022-10-16T05:28:31;14.60;99.90
27797;DHT22;15177;50.844;4.412;2022-10-16T05:30:57;14.60;99.90
27797;DHT22;15177;50.844;4.412;2022-10-16T05:33:25;14.60;99.90
27797;DHT22;15177;50.844;4.412;2022-10-16T05:35:51;14.50;99.90
27797;DHT22;15177;50.844;4.412;2022-10-16T05:38:18;14.60;99.90
27797;DHT22;15177;50.844;4.412;2022-10-16T05:40:44;14.50;99.90
27797;DHT22;15177;50.844;4.412;2022-10-16T05:43:15;14.50;99.90
27797;DHT22;15177;50.844;4.412;2022-10-16T05:45:41;14.60;99.90
27797;DHT22;15177;50.844;4.412;2022-10-16T05:48:07;14.60;99.90
27797;DHT22;15177;50.844;4.412;2022-10-16T05:50:33;14.60;99.90
27797;DHT22;15177;50.844;4.412;2022-10-16T05:52:59;14.40;99.90
27797;DHT22;15177;50.844;4.412;2022-10-16T05:55:24;14.40;99.90
27797;DHT22;15177;50.844;4.412;2022-10-16T05:57:50;14.50;99.90
27797;DHT22;15177;50.844;4.412;2022-10-16T06:00:16;14.50;99.90
27797;DHT22;15177;50.844;4.412;2022-10-16T06:02:41;14.40;99.90
27797;DHT22;15177;50.844;4.412;2022-10-16T06:05:08;14.40;99.90
27797;DHT22;15177;50.844;4.412;2022-10-16T06:07:35;14.40;99.90
27797;DHT22;15177;50.844;4.412;2022-10-16T06:10:03;14.40;99.90
27797;DHT22;15177;50.844;4.412;2022-10-16T06:12:29;14.50;99.90
27797;DHT22;15177;50.844;4.412;2022-10-16T06:14:54;14.40;99.90
27797;DHT22;15177;50.844;4.412;2022-10-16T06:17:20;14.30;99.90
27797;DHT22;15177;50.844;4.412;2022-10-16T06:19:46;14.40;99.90
27797;DHT22;15177;50.844;4.412;2022-10-16T06:22:11;14.50;99.90
27797;DHT22;15177;50.844;4.412;2022-10-16T06:24:37;14.40;99.90
27797;DHT22;15177;50.844;4.412;2022-10-16T06:27:04;14.30;99.90
27797;DHT22;15177;50.844;4.412;2022-10-16T06:29:29;14.40;99.90
27797;DHT22;15177;50.844;4.412;2022-10-16T06:31:55;14.50;99.90
27797;DHT22;15177;50.844;4.412;2022-10-16T06:34:20;14.50;99.90
27797;DHT22;15177;50.844;4.412;2022-10-16T06:36:46;14.50;99.90
27797;DHT22;15177;50.844;4.412;2022-10-16T06:39:12;14.50;99.90
27797;DHT22;15177;50.844;4.412;2022-10-16T06:41:37;14.50;99.90
27797;DHT22;15177;50.844;4.412;2022-10-16T06:44:06;14.50;99.90
27797;DHT22;15177;50.844;4.412;2022-10-16T06:46:35;14.50;99.90
27797;DHT22;15177;50.844;4.412;2022-10-16T06:49:01;14.70;99.90
27797;DHT22;15177;50.844;4.412;2022-10-16T06:51:28;14.80;99.90
27797;DHT22;15177;50.844;4.412;2022-10-16T06:53:55;15.00;99.90
27797;DHT22;15177;50.844;4.412;2022-10-16T06:56:24;15.10;99.90
27797;DHT22;15177;50.844;4.412;2022-10-16T06:58:51;15.30;99.90
27797;DHT22;15177;50.844;4.412;2022-10-16T07:01:18;15.50;99.90
27797;DHT22;15177;50.844;4.412;2022-10-16T07:03:45;15.70;99.90
27797;DHT22;15177;50.844;4.412;2022-10-16T07:06:13;15.90;99.90
27797;DHT22;15177;50.844;4.412;2022-10-16T07:08:40;16.10;99.90
27797;DHT22;15177;50.844;4.412;2022-10-16T07:11:09;16.70;99.90
27797;DHT22;15177;50.844;4.412;2022-10-16T07:13:36;17.50;99.90
27797;DHT22;15177;50.844;4.412;2022-10-16T07:16:16;18.50;99.90
27797;DHT22;15177;50.844;4.412;2022-10-16T07:18:42;19.90;99.90
27797;DHT22;15177;50.844;4.412;2022-10-16T07:23:41;21.90;99.90
27797;DHT22;15177;50.844;4.412;2022-10-16T07:26:07;22.10;99.90
27797;DHT22;15177;50.844;4.412;2022-10-16T07:28:33;22.50;99.90
27797;DHT22;15177;50.844;4.412;2022-10-16T07:31:03;22.70;99.90
27797;DHT22;15177;50.844;4.412;2022-10-16T07:33:29;23.20;99.90
27797;DHT22;15177;50.844;4.412;2022-10-16T07:35:55;23.90;99.90
27797;DHT22;15177;50.844;4.412;2022-10-16T07:38:21;24.50;99.90
27797;DHT22;15177;50.844;4.412;2022-10-16T07:40:48;25.00;99.90
27797;DHT22;15177;50.844;4.412;2022-10-16T07:43:14;24.90;99.90
27797;DHT22;15177;50.844;4.412;2022-10-16T07:45:48;24.90;99.90
27797;DHT22;15177;50.844;4.412;2022-10-16T07:48:17;25.20;99.90
27797;DHT22;15177;50.844;4.412;2022-10-16T07:50:43;25.70;99.30
27797;DHT22;15177;50.844;4.412;2022-10-16T07:53:10;26.40;98.00
27797;DHT22;15177;50.844;4.412;2022-10-16T07:55:37;26.80;95.80
27797;DHT22;15177;50.844;4.412;2022-10-16T07:58:04;27.20;95.00
27797;DHT22;15177;50.844;4.412;2022-10-16T08:00:30;27.50;93.40
27797;DHT22;15177;50.844;4.412;2022-10-16T08:02:57;27.60;92.80
27797;DHT22;15177;50.844;4.412;2022-10-16T08:05:26;27.80;92.30
27797;DHT22;15177;50.844;4.412;2022-10-16T08:07:52;28.00;91.20
27797;DHT22;15177;50.844;4.412;2022-10-16T08:10:21;28.40;90.80
27797;DHT22;15177;50.844;4.412;2022-10-16T08:12:46;28.80;88.20
27797;DHT22;15177;50.844;4.412;2022-10-16T08:15:12;29.10;86.80
27797;DHT22;15177;50.844;4.412;2022-10-16T08:17:38;29.10;84.10
27797;DHT22;15177;50.844;4.412;2022-10-16T08:20:04;29.30;83.70
27797;DHT22;15177;50.844;4.412;2022-10-16T08:22:30;29.50;82.60
27797;DHT22;15177;50.844;4.412;2022-10-16T08:24:56;29.40;81.20
27797;DHT22;15177;50.844;4.412;2022-10-16T08:27:21;29.20;81.40
27797;DHT22;15177;50.844;4.412;2022-10-16T08:29:48;28.60;82.40
27797;DHT22;15177;50.844;4.412;2022-10-16T08:32:14;28.80;83.40
27797;DHT22;15177;50.844;4.412;2022-10-16T08:34:40;28.60;82.60
27797;DHT22;15177;50.844;4.412;2022-10-16T08:37:05;28.60;82.90
27797;DHT22;15177;50.844;4.412;2022-10-16T08:39:33;28.60;82.30
27797;DHT22;15177;50.844;4.412;2022-10-16T08:47:57;29.00;80.80
27797;DHT22;15177;50.844;4.412;2022-10-16T08:50:30;29.00;79.80
27797;DHT22;15177;50.844;4.412;2022-10-16T08:52:57;28.70;80.40
27797;DHT22;15177;50.844;4.412;2022-10-16T08:55:37;28.70;80.50
27797;DHT22;15177;50.844;4.412;2022-10-16T08:58:15;29.00;80.30
27797;DHT22;15177;50.844;4.412;2022-10-16T09:00:42;28.90;79.30
27797;DHT22;15177;50.844;4.412;2022-10-16T09:11:38;28.60;79.50
27797;DHT22;15177;50.844;4.412;2022-10-16T09:22:27;28.90;78.80
27797;DHT22;15177;50.844;4.412;2022-10-16T09:24:56;29.00;78.30
27797;DHT22;15177;50.844;4.412;2022-10-16T09:27:26;29.10;77.50
27797;DHT22;15177;50.844;4.412;2022-10-16T09:29:51;29.20;76.10
27797;DHT22;15177;50.844;4.412;2022-10-16T09:32:22;29.30;75.80
27797;DHT22;15177;50.844;4.412;2022-10-16T09:34:55;29.30;76.30
27797;DHT22;15177;50.844;4.412;2022-10-16T09:37:23;29.40;75.80
27797;DHT22;15177;50.844;4.412;2022-10-16T09:39:52;29.10;75.80
27797;DHT22;15177;50.844;4.412;2022-10-16T09:42:31;29.40;75.60
27797;DHT22;15177;50.844;4.412;2022-10-16T09:44:58;29.60;74.40
27797;DHT22;15177;50.844;4.412;2022-10-16T09:47:26;29.70;73.90
27797;DHT22;15177;50.844;4.412;2022-10-16T09:50:01;29.70;74.30
27797;DHT22;15177;50.844;4.412;2022-10-16T09:52:31;29.60;73.20
27797;DHT22;15177;50.844;4.412;2022-10-16T09:55:02;29.30;73.90
27797;DHT22;15177;50.844;4.412;2022-10-16T09:57:47;29.40;74.40
27797;DHT22;15177;50.844;4.412;2022-10-16T10:00:16;29.60;73.80
27797;DHT22;15177;50.844;4.412;2022-10-16T10:02:43;29.80;72.60
27797;DHT22;15177;50.844;4.412;2022-10-16T10:05:23;29.70;73.30
27797;DHT22;15177;50.844;4.412;2022-10-16T10:07:58;29.80;72.90
27797;DHT22;15177;50.844;4.412;2022-10-16T10:10:29;29.70;72.10
27797;DHT22;15177;50.844;4.412;2022-10-16T10:12:56;29.70;73.20
27797;DHT22;15177;50.844;4.412;2022-10-16T10:15:22;29.50;72.10
27797;DHT22;15177;50.844;4.412;2022-10-16T10:17:54;28.90;73.10
27797;DHT22;15177;50.844;4.412;2022-10-16T10:20:30;28.50;74.90
27797;DHT22;15177;50.844;4.412;2022-10-16T10:22:58;28.10;75.70
27797;DHT22;15177;50.844;4.412;2022-10-16T10:28:27;27.20;79.50
27797;DHT22;15177;50.844;4.412;2022-10-16T10:31:02;27.20;79.70
27797;DHT22;15177;50.844;4.412;2022-10-16T10:33:52;27.00;78.50
27797;DHT22;15177;50.844;4.412;2022-10-16T10:49:48;24.50;90.40
27797;DHT22;15177;50.844;4.412;2022-10-16T10:54:56;23.50;92.60
27797;DHT22;15177;50.844;4.412;2022-10-16T10:57:48;23.30;94.10
27797;DHT22;15177;50.844;4.412;2022-10-16T11:06:40;22.80;95.90
27797;DHT22;15177;50.844;4.412;2022-10-16T11:20:26;22.00;98.10
27797;DHT22;15177;50.844;4.412;2022-10-16T11:22:57;22.00;98.70
27797;DHT22;15177;50.844;4.412;2022-10-16T11:25:31;22.10;98.60
27797;DHT22;15177;50.844;4.412;2022-10-16T11:28:19;22.20;98.50
27797;DHT22;15177;50.844;4.412;2022-10-16T11:36:46;22.20;97.70
27797;DHT22;15177;50.844;4.412;2022-10-16T11:39:23;22.20;98.40
27797;DHT22;15177;50.844;4.412;2022-10-16T11:41:55;22.20;98.30
27797;DHT22;15177;50.844;4.412;2022-10-16T11:44:55;22.10;98.60
27797;DHT22;15177;50.844;4.412;2022-10-16T11:47:45;22.10;99.10
27797;DHT22;15177;50.844;4.412;2022-10-16T11:52:55;22.30;98.80
27797;DHT22;15177;50.844;4.412;2022-10-16T11:55:33;22.00;99.40
27797;DHT22;15177;50.844;4.412;2022-10-16T12:08:27;22.30;99.20
27797;DHT22;15177;50.844;4.412;2022-10-16T12:10:53;22.20;99.20
27797;DHT22;15177;50.844;4.412;2022-10-16T12:13:36;22.20;99.10
27797;DHT22;15177;50.844;4.412;2022-10-16T12:16:20;22.30;99.20
27797;DHT22;15177;50.844;4.412;2022-10-16T12:18:46;22.40;98.90
27797;DHT22;15177;50.844;4.412;2022-10-16T12:21:14;22.60;98.50
27797;DHT22;15177;50.844;4.412;2022-10-16T12:23:56;22.40;98.30
27797;DHT22;15177;50.844;4.412;2022-10-16T12:26:34;22.20;99.00
27797;DHT22;15177;50.844;4.412;2022-10-16T12:31:57;22.20;98.20
27797;DHT22;15177;50.844;4.412;2022-10-16T12:36:54;22.00;99.50
27797;DHT22;15177;50.844;4.412;2022-10-16T12:39:22;22.30;99.20
27797;DHT22;15177;50.844;4.412;2022-10-16T12:42:01;22.60;98.00
27797;DHT22;15177;50.844;4.412;2022-10-16T12:44:32;22.60;97.60
27797;DHT22;15177;50.844;4.412;2022-10-16T12:46:58;22.70;98.10
27797;DHT22;15177;50.844;4.412;2022-10-16T12:49:36;22.70;98.10
27797;DHT22;15177;50.844;4.412;2022-10-16T12:52:03;22.70;98.40
27797;DHT22;15177;50.844;4.412;2022-10-16T12:54:37;22.70;98.80
27797;DHT22;15177;50.844;4.412;2022-10-16T12:59:59;22.70;99.40
27797;DHT22;15177;50.844;4.412;2022-10-16T13:22:15;21.50;99.90
27797;DHT22;15177;50.844;4.412;2022-10-16T13:30:16;21.50;99.90
27797;DHT22;15177;50.844;4.412;2022-10-16T13:32:53;21.10;99.90
27797;DHT22;15177;50.844;4.412;2022-10-16T13:35:24;20.80;99.90
27797;DHT22;15177;50.844;4.412;2022-10-16T13:37:50;21.10;99.90
27797;DHT22;15177;50.844;4.412;2022-10-16T13:40:22;21.20;99.90
27797;DHT22;15177;50.844;4.412;2022-10-16T13:42:49;21.50;99.90
27797;DHT22;15177;50.844;4.412;2022-10-16T13:45:27;21.80;99.90
27797;DHT22;15177;50.844;4.412;2022-10-16T13:48:09;21.90;99.90
27797;DHT22;15177;50.844;4.412;2022-10-16T13:50:35;22.10;99.90
27797;DHT22;15177;50.844;4.412;2022-10-16T13:53:05;22.00;99.90
27797;DHT22;15177;50.844;4.412;2022-10-16T13:55:31;21.60;99.90
27797;DHT22;15177;50.844;4.412;2022-10-16T13:58:13;20.90;99.90
27797;DHT22;15177;50.844;4.412;2022-10-16T14:00:41;20.70;99.90
27797;DHT22;15177;50.844;4.412;2022-10-16T14:03:17;21.10;99.90
27797;DHT22;15177;50.844;4.412;2022-10-16T14:05:52;21.00;99.90
27797;DHT22;15177;50.844;4.412;2022-10-16T14:08:19;20.70;99.90
27797;DHT22;15177;50.844;4.412;2022-10-16T14:10:51;20.40;99.90
27797;DHT22;15177;50.844;4.412;2022-10-16T14:13:22;20.20;99.90
27797;DHT22;15177;50.844;4.412;2022-10-16T14:15:51;20.10;99.90
27797;DHT22;15177;50.844;4.412;2022-10-16T14:18:22;20.20;99.90
27797;DHT22;15177;50.844;4.412;2022-10-16T14:20:50;20.60;99.90
27797;DHT22;15177;50.844;4.412;2022-10-16T14:23:43;20.80;99.90
27797;DHT22;15177;50.844;4.412;2022-10-16T14:28:36;20.30;99.90
27797;DHT22;15177;50.844;4.412;2022-10-16T14:31:14;20.20;99.90
27797;DHT22;15177;50.844;4.412;2022-10-16T14:33:45;20.00;99.90
27797;DHT22;15177;50.844;4.412;2022-10-16T14:36:14;19.90;99.90
27797;DHT22;15177;50.844;4.412;2022-10-16T14:41:21;19.80;99.90
27797;DHT22;15177;50.844;4.412;2022-10-16T14:43:51;19.60;99.90
27797;DHT22;15177;50.844;4.412;2022-10-16T14:46:27;19.60;99.90
27797;DHT22;15177;50.844;4.412;2022-10-16T14:49:04;19.80;99.90
27797;DHT22;15177;50.844;4.412;2022-10-16T14:51:39;20.00;99.90
27797;DHT22;15177;50.844;4.412;2022-10-16T14:54:10;20.00;99.90
27797;DHT22;15177;50.844;4.412;2022-10-16T14:56:53;19.80;99.90
27797;DHT22;15177;50.844;4.412;2022-10-16T14:59:30;19.60;99.90
27797;DHT22;15177;50.844;4.412;2022-10-16T15:01:57;19.60;99.90
27797;DHT22;15177;50.844;4.412;2022-10-16T15:04:23;19.60;99.90
27797;DHT22;15177;50.844;4.412;2022-10-16T15:06:49;19.50;99.90
27797;DHT22;15177;50.844;4.412;2022-10-16T15:09:15;19.50;99.90
27797;DHT22;15177;50.844;4.412;2022-10-16T15:11:41;19.50;99.90
27797;DHT22;15177;50.844;4.412;2022-10-16T15:14:11;19.60;99.90
27797;DHT22;15177;50.844;4.412;2022-10-16T15:16:38;20.00;99.90
27797;DHT22;15177;50.844;4.412;2022-10-16T15:19:03;19.90;99.90
27797;DHT22;15177;50.844;4.412;2022-10-16T15:21:31;19.60;99.90
27797;DHT22;15177;50.844;4.412;2022-10-16T15:23:58;19.50;99.90
27797;DHT22;15177;50.844;4.412;2022-10-16T15:26:28;19.40;99.90
27797;DHT22;15177;50.844;4.412;2022-10-16T15:28:54;19.30;99.90
27797;DHT22;15177;50.844;4.412;2022-10-16T15:31:20;19.10;99.90
27797;DHT22;15177;50.844;4.412;2022-10-16T15:33:50;19.10;99.90
27797;DHT22;15177;50.844;4.412;2022-10-16T15:36:27;19.20;99.90
27797;DHT22;15177;50.844;4.412;2022-10-16T15:38:53;19.40;99.90
27797;DHT22;15177;50.844;4.412;2022-10-16T15:41:20;19.50;99.90
27797;DHT22;15177;50.844;4.412;2022-10-16T15:43:48;19.50;99.90
27797;DHT22;15177;50.844;4.412;2022-10-16T15:46:15;19.40;99.90
27797;DHT22;15177;50.844;4.412;2022-10-16T15:48:42;19.20;99.90
27797;DHT22;15177;50.844;4.412;2022-10-16T15:51:08;19.00;99.90
27797;DHT22;15177;50.844;4.412;2022-10-16T15:53:34;18.90;99.90
27797;DHT22;15177;50.844;4.412;2022-10-16T15:56:03;19.00;99.90
27797;DHT22;15177;50.844;4.412;2022-10-16T15:58:28;19.00;99.90
27797;DHT22;15177;50.844;4.412;2022-10-16T16:00:56;19.10;99.90
27797;DHT22;15177;50.844;4.412;2022-10-16T16:03:22;19.10;99.90
27797;DHT22;15177;50.844;4.412;2022-10-16T16:05:48;19.10;99.90
27797;DHT22;15177;50.844;4.412;2022-10-16T16:08:15;19.10;99.90
27797;DHT22;15177;50.844;4.412;2022-10-16T16:10:42;19.10;99.90
27797;DHT22;15177;50.844;4.412;2022-10-16T16:13:07;19.10;99.90
27797;DHT22;15177;50.844;4.412;2022-10-16T16:15:33;19.10;99.90
27797;DHT22;15177;50.844;4.412;2022-10-16T16:17:58;19.00;99.90
27797;DHT22;15177;50.844;4.412;2022-10-16T16:20:25;18.70;99.90
27797;DHT22;15177;50.844;4.412;2022-10-16T16:22:51;18.60;99.90
27797;DHT22;15177;50.844;4.412;2022-10-16T16:25:17;18.60;99.90
27797;DHT22;15177;50.844;4.412;2022-10-16T16:27:42;18.60;99.90
27797;DHT22;15177;50.844;4.412;2022-10-16T16:30:11;18.50;99.90
27797;DHT22;15177;50.844;4.412;2022-10-16T16:32:36;18.60;99.90
27797;DHT22;15177;50.844;4.412;2022-10-16T16:35:03;18.50;99.90
27797;DHT22;15177;50.844;4.412;2022-10-16T16:37:29;18.50;99.90
27797;DHT22;15177;50.844;4.412;2022-10-16T16:39:54;18.50;99.90
27797;DHT22;15177;50.844;4.412;2022-10-16T16:42:24;18.60;99.90
27797;DHT22;15177;50.844;4.412;2022-10-16T16:44:50;18.60;99.90
27797;DHT22;15177;50.844;4.412;2022-10-16T16:47:15;18.50;99.90
27797;DHT22;15177;50.844;4.412;2022-10-16T16:49:41;18.60;99.90
27797;DHT22;15177;50.844;4.412;2022-10-16T16:52:07;18.80;99.90
27797;DHT22;15177;50.844;4.412;2022-10-16T16:54:33;18.70;99.90
27797;DHT22;15177;50.844;4.412;2022-10-16T16:56:58;18.80;99.90
27797;DHT22;15177;50.844;4.412;2022-10-16T16:59:24;18.70;99.90
27797;DHT22;15177;50.844;4.412;2022-10-16T17:01:50;18.90;99.90
27797;DHT22;15177;50.844;4.412;2022-10-16T17:04:16;19.00;99.90
27797;DHT22;15177;50.844;4.412;2022-10-16T17:06:42;19.10;99.90
27797;DHT22;15177;50.844;4.412;2022-10-16T17:09:08;19.20;99.90
27797;DHT22;15177;50.844;4.412;2022-10-16T17:11:36;19.20;99.90
27797;DHT22;15177;50.844;4.412;2022-10-16T17:14:02;19.20;99.90
27797;DHT22;15177;50.844;4.412;2022-10-16T17:16:33;18.70;99.90
27797;DHT22;15177;50.844;4.412;2022-10-16T17:19:01;18.70;99.90
27797;DHT22;15177;50.844;4.412;2022-10-16T17:21:27;18.60;99.90
27797;DHT22;15177;50.844;4.412;2022-10-16T17:23:55;18.60;99.90
27797;DHT22;15177;50.844;4.412;2022-10-16T17:26:21;18.40;99.90
27797;DHT22;15177;50.844;4.412;2022-10-16T17:28:50;18.40;99.90
27797;DHT22;15177;50.844;4.412;2022-10-16T17:31:19;18.10;99.90
27797;DHT22;15177;50.844;4.412;2022-10-16T17:33:45;18.00;99.90
27797;DHT22;15177;50.844;4.412;2022-10-16T17:36:11;17.90;99.90
27797;DHT22;15177;50.844;4.412;2022-10-16T17:38:42;18.10;99.90
27797;DHT22;15177;50.844;4.412;2022-10-16T17:41:12;18.00;99.90
27797;DHT22;15177;50.844;4.412;2022-10-16T17:43:39;18.10;99.90
27797;DHT22;15177;50.844;4.412;2022-10-16T17:46:06;18.00;99.90
27797;DHT22;15177;50.844;4.412;2022-10-16T17:48:40;17.80;99.90
27797;DHT22;15177;50.844;4.412;2022-10-16T17:51:07;17.70;99.90